sensor_id;sensor_type;location;lat;lon;timestamp;P1;durP1;ratioP1;P2;durP2;ratioP2
32788;SDS011;19141;48.980;8.410;2023-05-07T04:22:33;4.28;;;2.65;;
32788;SDS011;19141;48.980;8.410;2023-05-07T04:24:59;6.05;;;2.80;;
32788;SDS011;19141;48.980;8.410;2023-05-07T04:27:26;4.05;;;2.70;;
32788;SDS011;19141;48.980;8.410;2023-05-07T04:29:53;4.70;;;3.10;;
32788;SDS011;19141;48.980;8.410;2023-05-07T04:34:48;5.47;;;3.20;;
32788;SDS011;19141;48.980;8.410;2023-05-07T04:37:13;4.05;;;2.72;;
32788;SDS011;19141;48.980;8.410;2023-05-07T04:39:39;4.72;;;3.00;;
32788;SDS011;19141;48.980;8.410;2023-05-07T04:42:04;4.15;;;3.13;;
32788;SDS011;19141;48.980;8.410;2023-05-07T04:44:34;4.90;;;2.83;;
32788;SDS011;19141;48.980;8.410;2023-05-07T04:47:02;4.43;;;2.90;;
32788;SDS011;19141;48.980;8.410;2023-05-07T04:49:27;4.80;;;3.03;;
32788;SDS011;19141;48.980;8.410;2023-05-07T04:51:54;4.30;;;2.70;;
32788;SDS011;19141;48.980;8.410;2023-05-07T04:54:21;7.07;;;2.55;;
32788;SDS011;19141;48.980;8.410;2023-05-07T04:56:47;5.53;;;2.30;;
32788;SDS011;19141;48.980;8.410;2023-05-07T04:59:13;5.43;;;2.45;;
32788;SDS011;19141;48.980;8.410;2023-05-07T05:01:38;5.97;;;3.20;;
32788;SDS011;19141;48.980;8.410;2023-05-07T05:04:04;5.20;;;3.42;;
32788;SDS011;19141;48.980;8.410;2023-05-07T05:06:30;3.47;;;2.40;;
32788;SDS011;19141;48.980;8.410;2023-05-07T05:08:55;4.38;;;3.28;;
32788;SDS011;19141;48.980;8.410;2023-05-07T05:11:21;5.45;;;2.85;;
32788;SDS011;19141;48.980;8.410;2023-05-07T05:13:47;3.67;;;2.80;;
32788;SDS011;19141;48.980;8.410;2023-05-07T05:16:17;3.35;;;2.65;;
32788;SDS011;19141;48.980;8.410;2023-05-07T05:18:42;4.63;;;2.70;;
32788;SDS011;19141;48.980;8.410;2023-05-07T05:21:10;3.42;;;2.92;;
32788;SDS011;19141;48.980;8.410;2023-05-07T05:23:36;7.45;;;3.10;;
32788;SDS011;19141;48.980;8.410;2023-05-07T05:26:02;3.42;;;2.45;;
32788;SDS011;19141;48.980;8.410;2023-05-07T05:28:30;4.03;;;2.67;;
32788;SDS011;19141;48.980;8.410;2023-05-07T05:30:56;3.13;;;2.35;;
32788;SDS011;19141;48.980;8.410;2023-05-07T05:33:22;5.13;;;2.53;;
32788;SDS011;19141;48.980;8.410;2023-05-07T05:35:49;3.72;;;2.83;;
32788;SDS011;19141;48.980;8.410;2023-05-07T05:38:15;3.97;;;2.30;;
32788;SDS011;19141;48.980;8.410;2023-05-07T05:40:40;3.00;;;2.13;;
32788;SDS011;19141;48.980;8.410;2023-05-07T05:43:06;2.85;;;2.30;;
32788;SDS011;19141;48.980;8.410;2023-05-07T05:45:32;3.65;;;2.30;;
32788;SDS011;19141;48.980;8.410;2023-05-07T05:47:57;3.25;;;1.98;;
32788;SDS011;19141;48.980;8.410;2023-05-07T05:50:23;3.08;;;2.08;;
32788;SDS011;19141;48.980;8.410;2023-05-07T05:52:48;4.25;;;2.38;;
32788;SDS011;19141;48.980;8.410;2023-05-07T05:55:16;3.60;;;2.20;;
32788;SDS011;19141;48.980;8.410;2023-05-07T05:57:41;7.10;;;4.50;;
32788;SDS011;19141;48.980;8.410;2023-05-07T06:00:08;3.95;;;2.63;;
32788;SDS011;19141;48.980;8.410;2023-05-07T06:02:43;8.00;;;4.85;;
32788;SDS011;19141;48.980;8.410;2023-05-07T06:05:10;5.18;;;3.35;;
32788;SDS011;19141;48.980;8.410;2023-05-07T06:07:35;5.75;;;3.42;;
32788;SDS011;19141;48.980;8.410;2023-05-07T06:10:01;10.02;;;4.28;;
32788;SDS011;19141;48.980;8.410;2023-05-07T06:12:29;4.32;;;2.47;;
32788;SDS011;19141;48.980;8.410;2023-05-07T06:14:55;4.63;;;2.53;;
32788;SDS011;19141;48.980;8.410;2023-05-07T06:17:20;5.18;;;2.97;;
32788;SDS011;19141;48.980;8.410;2023-05-07T06:19:46;4.60;;;2.97;;
32788;SDS011;19141;48.980;8.410;2023-05-07T06:22:12;4.15;;;3.05;;
32788;SDS011;19141;48.980;8.410;2023-05-07T06:24:38;3.63;;;2.92;;
32788;SDS011;19141;48.980;8.410;2023-05-07T06:27:05;6.32;;;2.75;;
32788;SDS011;19141;48.980;8.410;2023-05-07T06:29:31;4.75;;;2.85;;
32788;SDS011;19141;48.980;8.410;2023-05-07T06:32:07;3.08;;;2.30;;
32788;SDS011;19141;48.980;8.410;2023-05-07T06:37:04;4.55;;;2.38;;
32788;SDS011;19141;48.980;8.410;2023-05-07T06:39:45;3.17;;;2.53;;
32788;SDS011;19141;48.980;8.410;2023-05-07T06:42:10;5.43;;;3.05;;
32788;SDS011;19141;48.980;8.410;2023-05-07T06:44:40;4.38;;;2.97;;
32788;SDS011;19141;48.980;8.410;2023-05-07T06:47:12;4.25;;;2.80;;
32788;SDS011;19141;48.980;8.410;2023-05-07T06:49:38;3.80;;;2.40;;
32788;SDS011;19141;48.980;8.410;2023-05-07T06:52:04;5.57;;;2.22;;
32788;SDS011;19141;48.980;8.410;2023-05-07T06:54:30;4.65;;;2.85;;
32788;SDS011;19141;48.980;8.410;2023-05-07T06:56:55;5.18;;;2.17;;
32788;SDS011;19141;48.980;8.410;2023-05-07T06:59:23;2.78;;;2.10;;
32788;SDS011;19141;48.980;8.410;2023-05-07T07:01:49;3.70;;;2.35;;
32788;SDS011;19141;48.980;8.410;2023-05-07T07:04:15;4.20;;;1.95;;
32788;SDS011;19141;48.980;8.410;2023-05-07T07:06:43;2.92;;;1.98;;
32788;SDS011;19141;48.980;8.410;2023-05-07T07:09:11;4.82;;;2.25;;
32788;SDS011;19141;48.980;8.410;2023-05-07T07:11:37;3.55;;;2.38;;
32788;SDS011;19141;48.980;8.410;2023-05-07T07:14:03;1.95;;;1.70;;
32788;SDS011;19141;48.980;8.410;2023-05-07T07:16:33;3.40;;;2.30;;
32788;SDS011;19141;48.980;8.410;2023-05-07T07:18:58;2.30;;;1.95;;
32788;SDS011;19141;48.980;8.410;2023-05-07T07:21:23;4.90;;;2.13;;
32788;SDS011;19141;48.980;8.410;2023-05-07T07:23:49;4.45;;;2.15;;
32788;SDS011;19141;48.980;8.410;2023-05-07T07:26:17;3.13;;;2.03;;
32788;SDS011;19141;48.980;8.410;2023-05-07T07:28:43;2.80;;;1.95;;
32788;SDS011;19141;48.980;8.410;2023-05-07T07:31:09;2.28;;;1.90;;
32788;SDS011;19141;48.980;8.410;2023-05-07T07:33:35;2.65;;;2.28;;
32788;SDS011;19141;48.980;8.410;2023-05-07T07:36:00;2.97;;;1.92;;
32788;SDS011;19141;48.980;8.410;2023-05-07T07:38:25;3.15;;;2.20;;
32788;SDS011;19141;48.980;8.410;2023-05-07T07:40:51;3.33;;;1.92;;
32788;SDS011;19141;48.980;8.410;2023-05-07T07:43:17;2.38;;;1.98;;
32788;SDS011;19141;48.980;8.410;2023-05-07T07:45:43;2.72;;;2.00;;
32788;SDS011;19141;48.980;8.410;2023-05-07T07:48:09;2.67;;;2.00;;
32788;SDS011;19141;48.980;8.410;2023-05-07T07:50:36;3.45;;;2.08;;
32788;SDS011;19141;48.980;8.410;2023-05-07T07:53:03;3.10;;;2.10;;
32788;SDS011;19141;48.980;8.410;2023-05-07T07:55:28;2.80;;;1.75;;
32788;SDS011;19141;48.980;8.410;2023-05-07T07:57:54;3.83;;;2.05;;
32788;SDS011;19141;48.980;8.410;2023-05-07T08:00:21;5.45;;;2.00;;
32788;SDS011;19141;48.980;8.410;2023-05-07T08:02:51;3.40;;;1.80;;
32788;SDS011;19141;48.980;8.410;2023-05-07T08:05:23;2.90;;;2.00;;
32788;SDS011;19141;48.980;8.410;2023-05-07T08:07:50;2.55;;;2.13;;
32788;SDS011;19141;48.980;8.410;2023-05-07T08:10:19;3.00;;;2.10;;
32788;SDS011;19141;48.980;8.410;2023-05-07T08:12:52;2.45;;;1.83;;
32788;SDS011;19141;48.980;8.410;2023-05-07T08:15:18;2.10;;;1.90;;
32788;SDS011;19141;48.980;8.410;2023-05-07T08:17:44;4.25;;;1.75;;
32788;SDS011;19141;48.980;8.410;2023-05-07T08:20:09;4.35;;;2.33;;
32788;SDS011;19141;48.980;8.410;2023-05-07T08:22:35;3.78;;;2.42;;
32788;SDS011;19141;48.980;8.410;2023-05-07T08:25:02;3.25;;;2.38;;
32788;SDS011;19141;48.980;8.410;2023-05-07T08:27:28;3.40;;;2.38;;
32788;SDS011;19141;48.980;8.410;2023-05-07T08:29:54;4.68;;;1.98;;
32788;SDS011;19141;48.980;8.410;2023-05-07T08:32:21;3.63;;;1.95;;
32788;SDS011;19141;48.980;8.410;2023-05-07T08:34:47;3.20;;;2.40;;
32788;SDS011;19141;48.980;8.410;2023-05-07T08:37:13;5.32;;;2.10;;
32788;SDS011;19141;48.980;8.410;2023-05-07T08:39:39;2.50;;;2.15;;
32788;SDS011;19141;48.980;8.410;2023-05-07T08:42:11;6.57;;;2.53;;
32788;SDS011;19141;48.980;8.410;2023-05-07T08:44:41;4.40;;;2.35;;
32788;SDS011;19141;48.980;8.410;2023-05-07T08:47:11;2.55;;;2.20;;
32788;SDS011;19141;48.980;8.410;2023-05-07T08:49:37;5.55;;;2.30;;
32788;SDS011;19141;48.980;8.410;2023-05-07T08:52:05;3.85;;;2.35;;
32788;SDS011;19141;48.980;8.410;2023-05-07T08:54:31;4.88;;;2.70;;
32788;SDS011;19141;48.980;8.410;2023-05-07T08:56:57;5.15;;;2.08;;
32788;SDS011;19141;48.980;8.410;2023-05-07T08:59:23;2.92;;;2.00;;
32788;SDS011;19141;48.980;8.410;2023-05-07T09:01:48;3.45;;;1.95;;
32788;SDS011;19141;48.980;8.410;2023-05-07T09:04:15;3.60;;;2.70;;
32788;SDS011;19141;48.980;8.410;2023-05-07T09:06:41;4.88;;;2.15;;
32788;SDS011;19141;48.980;8.410;2023-05-07T09:09:09;2.80;;;2.05;;
32788;SDS011;19141;48.980;8.410;2023-05-07T09:11:39;2.70;;;1.98;;
32788;SDS011;19141;48.980;8.410;2023-05-07T09:14:04;2.65;;;2.03;;
32788;SDS011;19141;48.980;8.410;2023-05-07T09:16:35;3.00;;;2.05;;
32788;SDS011;19141;48.980;8.410;2023-05-07T09:19:01;2.37;;;1.77;;
32788;SDS011;19141;48.980;8.410;2023-05-07T09:21:27;2.50;;;2.10;;
32788;SDS011;19141;48.980;8.410;2023-05-07T09:23:55;2.47;;;1.70;;
32788;SDS011;19141;48.980;8.410;2023-05-07T09:26:27;2.55;;;1.85;;
32788;SDS011;19141;48.980;8.410;2023-05-07T09:28:53;2.17;;;1.90;;
32788;SDS011;19141;48.980;8.410;2023-05-07T09:31:19;2.38;;;1.77;;
32788;SDS011;19141;48.980;8.410;2023-05-07T09:33:46;2.25;;;1.73;;
32788;SDS011;19141;48.980;8.410;2023-05-07T09:36:12;2.28;;;1.75;;
32788;SDS011;19141;48.980;8.410;2023-05-07T09:41:06;2.65;;;2.05;;
32788;SDS011;19141;48.980;8.410;2023-05-07T09:43:56;3.45;;;2.00;;
32788;SDS011;19141;48.980;8.410;2023-05-07T09:46:30;2.83;;;2.00;;
32788;SDS011;19141;48.980;8.410;2023-05-07T09:48:59;2.70;;;2.17;;
32788;SDS011;19141;48.980;8.410;2023-05-07T09:51:34;3.00;;;2.40;;
32788;SDS011;19141;48.980;8.410;2023-05-07T09:54:06;2.53;;;1.85;;
32788;SDS011;19141;48.980;8.410;2023-05-07T09:56:34;2.20;;;1.98;;
32788;SDS011;19141;48.980;8.410;2023-05-07T09:59:03;2.10;;;1.90;;
32788;SDS011;19141;48.980;8.410;2023-05-07T10:01:32;1.95;;;1.73;;
32788;SDS011;19141;48.980;8.410;2023-05-07T10:04:01;2.40;;;1.85;;
32788;SDS011;19141;48.980;8.410;2023-05-07T10:06:29;4.50;;;3.30;;
32788;SDS011;19141;48.980;8.410;2023-05-07T10:08:55;3.83;;;1.80;;
32788;SDS011;19141;48.980;8.410;2023-05-07T10:11:22;2.60;;;1.70;;
32788;SDS011;19141;48.980;8.410;2023-05-07T10:13:48;1.85;;;1.50;;
32788;SDS011;19141;48.980;8.410;2023-05-07T10:16:14;1.98;;;1.50;;
32788;SDS011;19141;48.980;8.410;2023-05-07T10:18:45;3.75;;;1.75;;
32788;SDS011;19141;48.980;8.410;2023-05-07T10:21:17;2.13;;;1.80;;
32788;SDS011;19141;48.980;8.410;2023-05-07T10:23:45;2.08;;;1.70;;
32788;SDS011;19141;48.980;8.410;2023-05-07T10:26:17;2.55;;;1.50;;
32788;SDS011;19141;48.980;8.410;2023-05-07T10:28:46;2.17;;;1.80;;
32788;SDS011;19141;48.980;8.410;2023-05-07T10:33:53;2.45;;;1.38;;
32788;SDS011;19141;48.980;8.410;2023-05-07T10:36:22;1.80;;;1.50;;
32788;SDS011;19141;48.980;8.410;2023-05-07T10:38:51;1.48;;;1.38;;
32788;SDS011;19141;48.980;8.410;2023-05-07T10:41:17;2.00;;;1.50;;
32788;SDS011;19141;48.980;8.410;2023-05-07T10:43:44;1.40;;;1.17;;
32788;SDS011;19141;48.980;8.410;2023-05-07T10:46:20;1.95;;;1.30;;
32788;SDS011;19141;48.980;8.410;2023-05-07T10:51:45;1.42;;;1.20;;
32788;SDS011;19141;48.980;8.410;2023-05-07T10:54:24;1.27;;;1.10;;
32788;SDS011;19141;48.980;8.410;2023-05-07T10:58:04;1.77;;;1.50;;
32788;SDS011;19141;48.980;8.410;2023-05-07T11:05:29;1.17;;;1.00;;
32788;SDS011;19141;48.980;8.410;2023-05-07T11:08:10;2.78;;;1.30;;
32788;SDS011;19141;48.980;8.410;2023-05-07T11:13:41;1.58;;;1.25;;
32788;SDS011;19141;48.980;8.410;2023-05-07T11:16:23;1.95;;;1.10;;
32788;SDS011;19141;48.980;8.410;2023-05-07T11:18:57;3.92;;;1.45;;
32788;SDS011;19141;48.980;8.410;2023-05-07T11:21:37;1.40;;;1.15;;
32788;SDS011;19141;48.980;8.410;2023-05-07T11:24:23;1.70;;;1.20;;
32788;SDS011;19141;48.980;8.410;2023-05-07T11:26:53;1.52;;;1.42;;
32788;SDS011;19141;48.980;8.410;2023-05-07T11:29:22;1.70;;;1.45;;
32788;SDS011;19141;48.980;8.410;2023-05-07T11:31:51;1.75;;;1.08;;
32788;SDS011;19141;48.980;8.410;2023-05-07T11:34:25;1.15;;;1.05;;
32788;SDS011;19141;48.980;8.410;2023-05-07T11:36:55;1.80;;;1.30;;
32788;SDS011;19141;48.980;8.410;2023-05-07T11:39:29;1.60;;;1.40;;
32788;SDS011;19141;48.980;8.410;2023-05-07T11:41:59;1.80;;;1.30;;
32788;SDS011;19141;48.980;8.410;2023-05-07T11:44:25;1.40;;;1.30;;
32788;SDS011;19141;48.980;8.410;2023-05-07T11:47:06;1.40;;;1.30;;
32788;SDS011;19141;48.980;8.410;2023-05-07T11:49:31;3.13;;;1.17;;
32788;SDS011;19141;48.980;8.410;2023-05-07T11:51:57;2.33;;;1.23;;
32788;SDS011;19141;48.980;8.410;2023-05-07T11:54:22;1.88;;;1.13;;
32788;SDS011;19141;48.980;8.410;2023-05-07T11:56:47;1.38;;;1.27;;
32788;SDS011;19141;48.980;8.410;2023-05-07T11:59:17;1.30;;;1.13;;
32788;SDS011;19141;48.980;8.410;2023-05-07T12:01:44;1.65;;;1.30;;
32788;SDS011;19141;48.980;8.410;2023-05-07T12:04:11;1.27;;;1.17;;
32788;SDS011;19141;48.980;8.410;2023-05-07T12:06:36;1.40;;;1.30;;
32788;SDS011;19141;48.980;8.410;2023-05-07T12:09:02;1.38;;;1.27;;
32788;SDS011;19141;48.980;8.410;2023-05-07T12:11:29;2.58;;;1.30;;
32788;SDS011;19141;48.980;8.410;2023-05-07T12:13:54;1.45;;;1.10;;
32788;SDS011;19141;48.980;8.410;2023-05-07T12:16:20;1.40;;;1.30;;
32788;SDS011;19141;48.980;8.410;2023-05-07T12:18:46;1.65;;;1.20;;
32788;SDS011;19141;48.980;8.410;2023-05-07T12:21:12;1.83;;;1.63;;
32788;SDS011;19141;48.980;8.410;2023-05-07T12:23:38;1.40;;;1.30;;
32788;SDS011;19141;48.980;8.410;2023-05-07T12:26:04;1.40;;;1.30;;
32788;SDS011;19141;48.980;8.410;2023-05-07T12:28:31;1.88;;;1.50;;
32788;SDS011;19141;48.980;8.410;2023-05-07T12:31:00;2.22;;;1.40;;
32788;SDS011;19141;48.980;8.410;2023-05-07T12:33:26;2.08;;;1.30;;
32788;SDS011;19141;48.980;8.410;2023-05-07T12:35:54;1.27;;;1.17;;
32788;SDS011;19141;48.980;8.410;2023-05-07T12:38:21;1.50;;;1.40;;
32788;SDS011;19141;48.980;8.410;2023-05-07T12:40:47;1.80;;;1.33;;
32788;SDS011;19141;48.980;8.410;2023-05-07T12:43:34;1.80;;;1.30;;
32788;SDS011;19141;48.980;8.410;2023-05-07T12:46:00;2.85;;;1.40;;
32788;SDS011;19141;48.980;8.410;2023-05-07T12:48:28;2.72;;;1.60;;
32788;SDS011;19141;48.980;8.410;2023-05-07T12:50:54;1.60;;;1.33;;
32788;SDS011;19141;48.980;8.410;2023-05-07T12:53:25;1.35;;;1.20;;
32788;SDS011;19141;48.980;8.410;2023-05-07T12:55:55;1.73;;;1.33;;
32788;SDS011;19141;48.980;8.410;2023-05-07T13:00:52;1.73;;;1.35;;
32788;SDS011;19141;48.980;8.410;2023-05-07T13:03:21;2.60;;;1.40;;
32788;SDS011;19141;48.980;8.410;2023-05-07T13:06:01;1.50;;;1.40;;
32788;SDS011;19141;48.980;8.410;2023-05-07T13:08:32;2.00;;;1.45;;
32788;SDS011;19141;48.980;8.410;2023-05-07T13:11:00;2.53;;;1.67;;
32788;SDS011;19141;48.980;8.410;2023-05-07T13:13:40;1.70;;;1.60;;
32788;SDS011;19141;48.980;8.410;2023-05-07T13:16:07;1.75;;;1.50;;
32788;SDS011;19141;48.980;8.410;2023-05-07T13:18:34;1.23;;;1.13;;
32788;SDS011;19141;48.980;8.410;2023-05-07T13:21:00;1.45;;;1.23;;
32788;SDS011;19141;48.980;8.410;2023-05-07T13:23:26;1.57;;;1.30;;
32788;SDS011;19141;48.980;8.410;2023-05-07T13:25:52;2.20;;;1.70;;
32788;SDS011;19141;48.980;8.410;2023-05-07T13:28:19;1.65;;;1.50;;
32788;SDS011;19141;48.980;8.410;2023-05-07T13:30:45;1.63;;;1.53;;
32788;SDS011;19141;48.980;8.410;2023-05-07T13:33:11;1.80;;;1.50;;
32788;SDS011;19141;48.980;8.410;2023-05-07T13:35:37;2.85;;;1.67;;
32788;SDS011;19141;48.980;8.410;2023-05-07T13:38:05;2.00;;;1.38;;
32788;SDS011;19141;48.980;8.410;2023-05-07T13:40:30;2.72;;;1.50;;
32788;SDS011;19141;48.980;8.410;2023-05-07T13:42:56;2.53;;;1.58;;
32788;SDS011;19141;48.980;8.410;2023-05-07T13:45:23;2.00;;;1.60;;
32788;SDS011;19141;48.980;8.410;2023-05-07T13:47:50;2.53;;;1.33;;
32788;SDS011;19141;48.980;8.410;2023-05-07T13:50:16;2.17;;;1.63;;
32788;SDS011;19141;48.980;8.410;2023-05-07T13:52:45;2.63;;;1.80;;
32788;SDS011;19141;48.980;8.410;2023-05-07T13:55:16;2.03;;;1.67;;
32788;SDS011;19141;48.980;8.410;2023-05-07T13:57:45;1.88;;;1.40;;
32788;SDS011;19141;48.980;8.410;2023-05-07T14:00:11;1.85;;;1.55;;
32788;SDS011;19141;48.980;8.410;2023-05-07T14:02:40;3.28;;;1.80;;
32788;SDS011;19141;48.980;8.410;2023-05-07T14:05:06;3.38;;;2.10;;
32788;SDS011;19141;48.980;8.410;2023-05-07T14:07:32;3.10;;;2.40;;
32788;SDS011;19141;48.980;8.410;2023-05-07T14:09:57;2.63;;;2.25;;
32788;SDS011;19141;48.980;8.410;2023-05-07T14:12:22;3.30;;;2.17;;
32788;SDS011;19141;48.980;8.410;2023-05-07T14:14:48;2.42;;;1.80;;
32788;SDS011;19141;48.980;8.410;2023-05-07T14:17:15;2.03;;;1.87;;
32788;SDS011;19141;48.980;8.410;2023-05-07T14:19:42;2.42;;;1.48;;
32788;SDS011;19141;48.980;8.410;2023-05-07T14:22:07;3.25;;;1.40;;
32788;SDS011;19141;48.980;8.410;2023-05-07T14:24:33;1.90;;;0.90;;
32788;SDS011;19141;48.980;8.410;2023-05-07T14:26:58;0.73;;;0.70;;
32788;SDS011;19141;48.980;8.410;2023-05-07T14:29:23;1.08;;;0.80;;
32788;SDS011;19141;48.980;8.410;2023-05-07T14:31:49;0.60;;;0.50;;
32788;SDS011;19141;48.980;8.410;2023-05-07T14:34:14;0.47;;;0.45;;
32788;SDS011;19141;48.980;8.410;2023-05-07T14:36:39;0.63;;;0.52;;
32788;SDS011;19141;48.980;8.410;2023-05-07T14:39:05;0.93;;;0.85;;
32788;SDS011;19141;48.980;8.410;2023-05-07T14:41:31;1.00;;;0.77;;
32788;SDS011;19141;48.980;8.410;2023-05-07T14:43:58;0.60;;;0.60;;
32788;SDS011;19141;48.980;8.410;2023-05-07T14:46:24;0.70;;;0.65;;
32788;SDS011;19141;48.980;8.410;2023-05-07T14:48:49;2.03;;;1.00;;
32788;SDS011;19141;48.980;8.410;2023-05-07T14:51:15;1.10;;;0.60;;
32788;SDS011;19141;48.980;8.410;2023-05-07T14:53:40;0.50;;;0.40;;
32788;SDS011;19141;48.980;8.410;2023-05-07T14:56:07;1.92;;;0.85;;
32788;SDS011;19141;48.980;8.410;2023-05-07T14:58:32;7.32;;;1.05;;
32788;SDS011;19141;48.980;8.410;2023-05-07T15:00:59;0.70;;;0.70;;
32788;SDS011;19141;48.980;8.410;2023-05-07T15:03:24;1.33;;;1.10;;
32788;SDS011;19141;48.980;8.410;2023-05-07T15:05:50;1.17;;;1.08;;
32788;SDS011;19141;48.980;8.410;2023-05-07T15:08:16;1.20;;;0.90;;
32788;SDS011;19141;48.980;8.410;2023-05-07T15:10:42;1.95;;;1.10;;
32788;SDS011;19141;48.980;8.410;2023-05-07T15:13:08;2.45;;;0.80;;
32788;SDS011;19141;48.980;8.410;2023-05-07T15:15:34;0.80;;;0.80;;
32788;SDS011;19141;48.980;8.410;2023-05-07T15:18:00;0.60;;;0.60;;
32788;SDS011;19141;48.980;8.410;2023-05-07T15:20:26;1.75;;;1.20;;
32788;SDS011;19141;48.980;8.410;2023-05-07T15:22:52;1.33;;;0.75;;
32788;SDS011;19141;48.980;8.410;2023-05-07T15:25:17;0.80;;;0.70;;
32788;SDS011;19141;48.980;8.410;2023-05-07T15:27:43;0.80;;;0.70;;
32788;SDS011;19141;48.980;8.410;2023-05-07T15:30:09;1.75;;;1.05;;
32788;SDS011;19141;48.980;8.410;2023-05-07T15:32:36;3.03;;;1.00;;
32788;SDS011;19141;48.980;8.410;2023-05-07T15:35:03;1.33;;;1.05;;
32788;SDS011;19141;48.980;8.410;2023-05-07T15:37:32;1.23;;;0.85;;
32788;SDS011;19141;48.980;8.410;2023-05-07T15:39:58;1.55;;;0.88;;
32788;SDS011;19141;48.980;8.410;2023-05-07T15:42:23;1.10;;;1.00;;
32788;SDS011;19141;48.980;8.410;2023-05-07T15:44:49;0.80;;;0.75;;
32788;SDS011;19141;48.980;8.410;2023-05-07T15:47:14;0.85;;;0.85;;
32788;SDS011;19141;48.980;8.410;2023-05-07T15:49:40;1.60;;;0.80;;
32788;SDS011;19141;48.980;8.410;2023-05-07T15:52:06;1.55;;;1.00;;
32788;SDS011;19141;48.980;8.410;2023-05-07T15:54:31;1.05;;;0.95;;
32788;SDS011;19141;48.980;8.410;2023-05-07T15:56:57;1.48;;;0.80;;
32788;SDS011;19141;48.980;8.410;2023-05-07T15:59:22;1.70;;;0.93;;
32788;SDS011;19141;48.980;8.410;2023-05-07T16:01:48;2.35;;;1.00;;
32788;SDS011;19141;48.980;8.410;2023-05-07T16:04:13;1.48;;;0.70;;
32788;SDS011;19141;48.980;8.410;2023-05-07T16:06:39;1.10;;;0.93;;
32788;SDS011;19141;48.980;8.410;2023-05-07T16:09:05;1.83;;;1.48;;
32788;SDS011;19141;48.980;8.410;2023-05-07T16:11:30;1.33;;;1.13;;
32788;SDS011;19141;48.980;8.410;2023-05-07T16:13:57;1.58;;;0.98;;
32788;SDS011;19141;48.980;8.410;2023-05-07T16:18:54;1.50;;;1.08;;
32788;SDS011;19141;48.980;8.410;2023-05-07T16:21:20;1.13;;;0.98;;
32788;SDS011;19141;48.980;8.410;2023-05-07T16:23:45;1.02;;;0.93;;
32788;SDS011;19141;48.980;8.410;2023-05-07T16:26:10;1.15;;;1.05;;
32788;SDS011;19141;48.980;8.410;2023-05-07T16:31:04;1.55;;;1.27;;
32788;SDS011;19141;48.980;8.410;2023-05-07T16:33:32;2.38;;;1.10;;
32788;SDS011;19141;48.980;8.410;2023-05-07T16:35:58;2.38;;;1.27;;
32788;SDS011;19141;48.980;8.410;2023-05-07T16:38:23;1.67;;;1.15;;
32788;SDS011;19141;48.980;8.410;2023-05-07T16:40:51;2.92;;;1.10;;
32788;SDS011;19141;48.980;8.410;2023-05-07T16:43:16;1.13;;;0.90;;
32788;SDS011;19141;48.980;8.410;2023-05-07T16:45:42;0.95;;;0.90;;
32788;SDS011;19141;48.980;8.410;2023-05-07T16:48:07;1.08;;;0.85;;
32788;SDS011;19141;48.980;8.410;2023-05-07T16:50:33;3.25;;;1.00;;
32788;SDS011;19141;48.980;8.410;2023-05-07T16:52:58;1.13;;;1.02;;
32788;SDS011;19141;48.980;8.410;2023-05-07T16:55:23;1.38;;;1.00;;
32788;SDS011;19141;48.980;8.410;2023-05-07T16:57:49;1.25;;;0.90;;
32788;SDS011;19141;48.980;8.410;2023-05-07T17:00:14;1.73;;;1.10;;
32788;SDS011;19141;48.980;8.410;2023-05-07T17:02:40;1.23;;;1.00;;
32788;SDS011;19141;48.980;8.410;2023-05-07T17:05:06;1.60;;;0.93;;
32788;SDS011;19141;48.980;8.410;2023-05-07T17:07:32;3.38;;;1.30;;
32788;SDS011;19141;48.980;8.410;2023-05-07T17:09:57;1.58;;;0.93;;
32788;SDS011;19141;48.980;8.410;2023-05-07T17:12:23;1.35;;;1.25;;
32788;SDS011;19141;48.980;8.410;2023-05-07T17:14:49;1.30;;;1.20;;
32788;SDS011;19141;48.980;8.410;2023-05-07T17:17:14;2.78;;;1.58;;
32788;SDS011;19141;48.980;8.410;2023-05-07T17:19:40;2.30;;;1.38;;
32788;SDS011;19141;48.980;8.410;2023-05-07T17:22:05;1.85;;;1.52;;
32788;SDS011;19141;48.980;8.410;2023-05-07T17:24:31;1.30;;;1.10;;
32788;SDS011;19141;48.980;8.410;2023-05-07T17:26:56;2.28;;;1.90;;
32788;SDS011;19141;48.980;8.410;2023-05-07T17:29:21;2.58;;;1.30;;
32788;SDS011;19141;48.980;8.410;2023-05-07T17:31:47;1.95;;;1.20;;
32788;SDS011;19141;48.980;8.410;2023-05-07T17:34:13;1.38;;;1.20;;
32788;SDS011;19141;48.980;8.410;2023-05-07T17:36:39;3.70;;;1.20;;
32788;SDS011;19141;48.980;8.410;2023-05-07T17:39:05;2.42;;;1.67;;
32788;SDS011;19141;48.980;8.410;2023-05-07T17:41:30;3.58;;;1.60;;
32788;SDS011;19141;48.980;8.410;2023-05-07T17:43:55;1.48;;;1.35;;
32788;SDS011;19141;48.980;8.410;2023-05-07T17:46:21;2.40;;;1.35;;
32788;SDS011;19141;48.980;8.410;2023-05-07T17:48:46;2.15;;;1.77;;
32788;SDS011;19141;48.980;8.410;2023-05-07T17:51:12;2.40;;;1.70;;
32788;SDS011;19141;48.980;8.410;2023-05-07T17:53:37;1.35;;;1.25;;
32788;SDS011;19141;48.980;8.410;2023-05-07T17:56:03;1.75;;;1.50;;
32788;SDS011;19141;48.980;8.410;2023-05-07T17:58:29;1.63;;;1.52;;
32788;SDS011;19141;48.980;8.410;2023-05-07T18:00:55;2.17;;;1.60;;
32788;SDS011;19141;48.980;8.410;2023-05-07T18:03:20;2.90;;;1.40;;
32788;SDS011;19141;48.980;8.410;2023-05-07T18:05:48;3.15;;;1.73;;
32788;SDS011;19141;48.980;8.410;2023-05-07T18:08:13;2.50;;;1.63;;
32788;SDS011;19141;48.980;8.410;2023-05-07T18:10:39;2.17;;;1.52;;
32788;SDS011;19141;48.980;8.410;2023-05-07T18:13:04;2.15;;;1.90;;
32788;SDS011;19141;48.980;8.410;2023-05-07T18:15:30;3.20;;;1.90;;
32788;SDS011;19141;48.980;8.410;2023-05-07T18:17:55;3.13;;;2.05;;
32788;SDS011;19141;48.980;8.410;2023-05-07T18:20:21;3.13;;;2.05;;
32788;SDS011;19141;48.980;8.410;2023-05-07T18:22:46;3.95;;;2.00;;
32788;SDS011;19141;48.980;8.410;2023-05-07T18:25:11;3.38;;;2.47;;
32788;SDS011;19141;48.980;8.410;2023-05-07T18:27:37;2.95;;;2.20;;
32788;SDS011;19141;48.980;8.410;2023-05-07T18:30:02;4.38;;;2.30;;
32788;SDS011;19141;48.980;8.410;2023-05-07T18:32:28;5.88;;;2.47;;
32788;SDS011;19141;48.980;8.410;2023-05-07T18:34:53;4.43;;;3.17;;
32788;SDS011;19141;48.980;8.410;2023-05-07T18:37:19;3.47;;;2.60;;
32788;SDS011;19141;48.980;8.410;2023-05-07T18:39:44;2.75;;;2.10;;
32788;SDS011;19141;48.980;8.410;2023-05-07T18:42:12;4.03;;;2.75;;
32788;SDS011;19141;48.980;8.410;2023-05-07T18:44:38;3.67;;;2.75;;
32788;SDS011;19141;48.980;8.410;2023-05-07T18:47:04;4.07;;;3.20;;
32788;SDS011;19141;48.980;8.410;2023-05-07T18:49:30;9.73;;;5.97;;
32788;SDS011;19141;48.980;8.410;2023-05-07T18:51:56;4.82;;;3.13;;
32788;SDS011;19141;48.980;8.410;2023-05-07T18:54:21;7.20;;;4.47;;
32788;SDS011;19141;48.980;8.410;2023-05-07T18:56:47;5.20;;;3.70;;
32788;SDS011;19141;48.980;8.410;2023-05-07T18:59:13;5.43;;;3.10;;
32788;SDS011;19141;48.980;8.410;2023-05-07T19:01:38;6.38;;;3.45;;
32788;SDS011;19141;48.980;8.410;2023-05-07T19:04:04;6.00;;;3.30;;
32788;SDS011;19141;48.980;8.410;2023-05-07T19:06:29;4.18;;;3.33;;
32788;SDS011;19141;48.980;8.410;2023-05-07T19:08:55;5.82;;;3.00;;
32788;SDS011;19141;48.980;8.410;2023-05-07T19:11:21;5.00;;;3.33;;
32788;SDS011;19141;48.980;8.410;2023-05-07T19:13:48;5.25;;;3.65;;
32788;SDS011;19141;48.980;8.410;2023-05-07T19:16:13;4.90;;;3.45;;
32788;SDS011;19141;48.980;8.410;2023-05-07T19:18:39;6.03;;;4.20;;
32788;SDS011;19141;48.980;8.410;2023-05-07T19:21:04;8.60;;;3.97;;
32788;SDS011;19141;48.980;8.410;2023-05-07T19:23:31;6.32;;;3.78;;
32788;SDS011;19141;48.980;8.410;2023-05-07T19:25:57;6.75;;;3.38;;
32788;SDS011;19141;48.980;8.410;2023-05-07T19:28:22;5.15;;;3.45;;
32788;SDS011;19141;48.980;8.410;2023-05-07T19:30:47;5.57;;;3.78;;
32788;SDS011;19141;48.980;8.410;2023-05-07T19:33:14;6.93;;;4.00;;
32788;SDS011;19141;48.980;8.410;2023-05-07T19:35:39;5.38;;;3.85;;
32788;SDS011;19141;48.980;8.410;2023-05-07T19:38:05;5.60;;;3.45;;